Aviation Digital Data Service (ADDS)

Output produced by METARs form (0011 UTC 25 April 2019)
found at http://www.aviationweather.gov/metar/data/
 
METAR text: LPST 241600Z 24019G31KT 9999 BKN020 16/12 Q1005
Conditions at: LPST (SINTRA/GRANJA (A, PT) observed 1600 UTC 24 April 2019
Temperature: 16.0°C (61°F)
Dewpoint: 12.0°C (54°F) [RH = 77%]
Pressure (altimeter): 29.68 inches Hg (1005.0 mb)
Winds: from the WSW (240 degrees) at 22 MPH (19 knots; 9.8 m/s)
gusting to 36 MPH (31 knots; 15.9 m/s)
Visibility: 6 or more miles (10+ km)
Ceiling: 2000 feet AGL
Clouds: broken clouds at 2000 feet AGL
Weather: no significant weather observed at this time

METAR text: LPST 241500Z 24014KT 9999 BKN020 16/12 Q1005
Conditions at: LPST (SINTRA/GRANJA (A, PT) observed 1500 UTC 24 April 2019
Temperature: 16.0°C (61°F)
Dewpoint: 12.0°C (54°F) [RH = 77%]
Pressure (altimeter): 29.68 inches Hg (1005.0 mb)
Winds: from the WSW (240 degrees) at 16 MPH (14 knots; 7.2 m/s)
Visibility: 6 or more miles (10+ km)
Ceiling: 2000 feet AGL
Clouds: broken clouds at 2000 feet AGL
Weather: no significant weather observed at this time

METAR text: LPST 241400Z 25019G29KT 9999 BKN020 17/12 Q1005
Conditions at: LPST (SINTRA/GRANJA (A, PT) observed 1400 UTC 24 April 2019
Temperature: 17.0°C (63°F)
Dewpoint: 12.0°C (54°F) [RH = 72%]
Pressure (altimeter): 29.68 inches Hg (1005.0 mb)
Winds: from the WSW (250 degrees) at 22 MPH (19 knots; 9.8 m/s)
gusting to 33 MPH (29 knots; 14.9 m/s)
Visibility: 6 or more miles (10+ km)
Ceiling: 2000 feet AGL
Clouds: broken clouds at 2000 feet AGL
Weather: no significant weather observed at this time

METAR text: LPST 241300Z 24017KT 9999 SCT017 16/11 Q1005
Conditions at: LPST (SINTRA/GRANJA (A, PT) observed 1300 UTC 24 April 2019
Temperature: 16.0°C (61°F)
Dewpoint: 11.0°C (52°F) [RH = 72%]
Pressure (altimeter): 29.68 inches Hg (1005.0 mb)
Winds: from the WSW (240 degrees) at 20 MPH (17 knots; 8.7 m/s)
Visibility: 6 or more miles (10+ km)
Ceiling: at least 12,000 feet AGL
Clouds: scattered clouds at 1700 feet AGL
Weather: no significant weather observed at this time

METAR text: LPST 241200Z 24012KT 9999 SCT015 BKN035 15/13 Q1005
Conditions at: LPST (SINTRA/GRANJA (A, PT) observed 1200 UTC 24 April 2019
Temperature: 15.0°C (59°F)
Dewpoint: 13.0°C (55°F) [RH = 88%]
Pressure (altimeter): 29.68 inches Hg (1005.0 mb)
Winds: from the WSW (240 degrees) at 14 MPH (12 knots; 6.2 m/s)
Visibility: 6 or more miles (10+ km)
Ceiling: 3500 feet AGL
Clouds: scattered clouds at 1500 feet AGL
broken clouds at 3500 feet AGL
Weather: no significant weather observed at this time

METAR text: LPST 241100Z 26008KT 230V300 5000 -RADZ SCT005 BKN012 FEW020TCU 13/12 Q1005
Conditions at: LPST (SINTRA/GRANJA (A, PT) observed 1100 UTC 24 April 2019
Temperature: 13.0°C (55°F)
Dewpoint: 12.0°C (54°F) [RH = 94%]
Pressure (altimeter): 29.68 inches Hg (1005.0 mb)
Winds: from the W (260 degrees) at 9 MPH (8 knots; 4.1 m/s)
Visibility: 3 miles ( 5 km)
Ceiling: 1200 feet AGL
Clouds: scattered clouds at 500 feet AGL
broken clouds at 1200 feet AGL
few clouds at 2000 feet AGL
Weather: -RA -DZ  (light rain, light drizzle)

METAR text: LPST 241000Z 23014G24KT 9999 BKN015 FEW020TCU 16/12 Q1004
Conditions at: LPST (SINTRA/GRANJA (A, PT) observed 1000 UTC 24 April 2019
Temperature: 16.0°C (61°F)
Dewpoint: 12.0°C (54°F) [RH = 77%]
Pressure (altimeter): 29.65 inches Hg (1004.0 mb)
Winds: from the SW (230 degrees) at 16 MPH (14 knots; 7.2 m/s)
gusting to 28 MPH (24 knots; 12.3 m/s)
Visibility: 6 or more miles (10+ km)
Ceiling: 1500 feet AGL
Clouds: broken clouds at 1500 feet AGL
few clouds at 2000 feet AGL
Weather: no significant weather observed at this time

METAR text: LPST 240900Z 23015KT 200V260 9999 SCT009 BKN015 15/12 Q1003
Conditions at: LPST (SINTRA/GRANJA (A, PT) observed 0900 UTC 24 April 2019
Temperature: 15.0°C (59°F)
Dewpoint: 12.0°C (54°F) [RH = 82%]
Pressure (altimeter): 29.62 inches Hg (1003.0 mb)
Winds: from the SW (230 degrees) at 17 MPH (15 knots; 7.7 m/s)
Visibility: 6 or more miles (10+ km)
Ceiling: 1500 feet AGL
Clouds: scattered clouds at 900 feet AGL
broken clouds at 1500 feet AGL
Weather: no significant weather observed at this time

METAR text: LPST 240800Z 25011KT 9999 SCT009 BKN015 14/12 Q1003
Conditions at: LPST (SINTRA/GRANJA (A, PT) observed 0800 UTC 24 April 2019
Temperature: 14.0°C (57°F)
Dewpoint: 12.0°C (54°F) [RH = 88%]
Pressure (altimeter): 29.62 inches Hg (1003.0 mb)
Winds: from the WSW (250 degrees) at 13 MPH (11 knots; 5.7 m/s)
Visibility: 6 or more miles (10+ km)
Ceiling: 1500 feet AGL
Clouds: scattered clouds at 900 feet AGL
broken clouds at 1500 feet AGL
Weather: no significant weather observed at this time

METAR text: LPST 240700Z 25013G23KT 9999 SCT009 BKN015 13/12 Q1002
Conditions at: LPST (SINTRA/GRANJA (A, PT) observed 0700 UTC 24 April 2019
Temperature: 13.0°C (55°F)
Dewpoint: 12.0°C (54°F) [RH = 94%]
Pressure (altimeter): 29.59 inches Hg (1002.0 mb)
Winds: from the WSW (250 degrees) at 15 MPH (13 knots; 6.7 m/s)
gusting to 26 MPH (23 knots; 11.8 m/s)
Visibility: 6 or more miles (10+ km)
Ceiling: 1500 feet AGL
Clouds: scattered clouds at 900 feet AGL
broken clouds at 1500 feet AGL
Weather: no significant weather observed at this time

METAR text: LPST 240600Z 24016G27KT 7000 -RA BKN008 OVC013 14/12 Q1001
Conditions at: LPST (SINTRA/GRANJA (A, PT) observed 0600 UTC 24 April 2019
Temperature: 14.0°C (57°F)
Dewpoint: 12.0°C (54°F) [RH = 88%]
Pressure (altimeter): 29.56 inches Hg (1001.0 mb)
Winds: from the WSW (240 degrees) at 18 MPH (16 knots; 8.2 m/s)
gusting to 31 MPH (27 knots; 13.9 m/s)
Visibility: 4 miles ( 7 km)
Ceiling: 800 feet AGL
Clouds: broken clouds at 800 feet AGL
overcast cloud deck at 1300 feet AGL
Weather: -RA  (light rain)

METAR text: LPST 231600Z 28015KT 9999 FEW022 13/05 Q1004
Conditions at: LPST (SINTRA/GRANJA (A, PT) observed 1600 UTC 23 April 2019
Temperature: 13.0°C (55°F)
Dewpoint: 5.0°C (41°F) [RH = 58%]
Pressure (altimeter): 29.65 inches Hg (1004.0 mb)
Winds: from the W (280 degrees) at 17 MPH (15 knots; 7.7 m/s)
Visibility: 6 or more miles (10+ km)
Ceiling: at least 12,000 feet AGL
Clouds: few clouds at 2200 feet AGL
Weather: no significant weather observed at this time

METAR text: LPST 231500Z 29016KT 9999 SCT025 FEW030CB 13/07 Q1004
Conditions at: LPST (SINTRA/GRANJA (A, PT) observed 1500 UTC 23 April 2019
Temperature: 13.0°C (55°F)
Dewpoint: 7.0°C (45°F) [RH = 67%]
Pressure (altimeter): 29.65 inches Hg (1004.0 mb)
Winds: from the WNW (290 degrees) at 18 MPH (16 knots; 8.2 m/s)
Visibility: 6 or more miles (10+ km)
Ceiling: at least 12,000 feet AGL
Clouds: scattered clouds at 2500 feet AGL
few clouds at 3000 feet AGL
Weather: no significant weather observed at this time

METAR text: LPST 231400Z 28016KT 250V320 9999 SCT025 FEW030CB 14/06 Q1003
Conditions at: LPST (SINTRA/GRANJA (A, PT) observed 1400 UTC 23 April 2019
Temperature: 14.0°C (57°F)
Dewpoint: 6.0°C (43°F) [RH = 58%]
Pressure (altimeter): 29.62 inches Hg (1003.0 mb)
Winds: from the W (280 degrees) at 18 MPH (16 knots; 8.2 m/s)
Visibility: 6 or more miles (10+ km)
Ceiling: at least 12,000 feet AGL
Clouds: scattered clouds at 2500 feet AGL
few clouds at 3000 feet AGL
Weather: no significant weather observed at this time

METAR text: LPST 231300Z 28017KT 9999 FEW025 FEW030CB 13/06 Q1003
Conditions at: LPST (SINTRA/GRANJA (A, PT) observed 1300 UTC 23 April 2019
Temperature: 13.0°C (55°F)
Dewpoint: 6.0°C (43°F) [RH = 62%]
Pressure (altimeter): 29.62 inches Hg (1003.0 mb)
Winds: from the W (280 degrees) at 20 MPH (17 knots; 8.7 m/s)
Visibility: 6 or more miles (10+ km)
Ceiling: at least 12,000 feet AGL
Clouds: few clouds at 2500 feet AGL
few clouds at 3000 feet AGL
Weather: no significant weather observed at this time

Forecast for: LPST (SINTRA/GRANJA (A, PT)
Text: TAF LPST 241400Z 2415/2424 25015KT 9999 SCT015 BKN025
Forecast period: 1500 to 1900 UTC 24 April 2019
Forecast type: FROM: standard forecast or significant change
Winds: from the WSW (250 degrees) at 17 MPH (15 knots; 7.7 m/s)
Visibility: 6 or more miles 10+ km)
Ceiling: 2500 feet AGL
Clouds: scattered clouds at 1500 feet AGL
broken clouds at 2500 feet AGL
Weather: no significant weather forecast for this period
Text: PROB40
Forecast period: 1500 to 1900 UTC 24 April 2019
Forecast type: TEMPORARY: The following changes expected for less than half the time period
Winds: from the W (260 degrees) at 23 MPH (20 knots; 10.3 m/s)
gusting to 40 MPH (35 knots; 18.0 m/s)
Visibility: 1.55 miles (2.49 km)
Ceiling: 1200 feet AGL
Clouds: scattered clouds at 500 feet AGL
broken clouds at 1200 feet AGL
few clouds at 2000 feet AGL
Weather: RA DZ  (moderate rain, moderate drizzle)
Text: TEMPO 2415/2419 26020G35KT 2500 RADZ SCT005 BKN012 FEW020TCU
Forecast period: 1900 UTC 24 April 2019 to 0000 UTC 25 April 2019
Forecast type: BECOMING: Conditions expected to become as follows by 2100 UTC 24 April 2019
Winds: from the WNW (290 degrees) at 12 MPH (10 knots; 5.1 m/s)
Visibility: 6 or more miles 10+ km)
Ceiling: at least 12,000 feet AGL
Clouds: scattered clouds at 2000 feet AGL
Weather: no significant weather forecast for this period
Text: BECMG 2419/2421 29010KT SCT020
Forecast period: 1900 UTC 24 April 2019 to 0000 UTC 25 April 2019
Forecast type: TEMPORARY: The following changes expected for less than half the time period
Visibility: 2.49 miles (4.01 km)
Ceiling: 1200 feet AGL
Clouds: broken clouds at 1200 feet AGL
Weather: SHRA  (rain showers)